createdAt,value
2018-05-14T00:00:06.494Z,53.49
2018-05-14T00:01:06.487Z,53.30
2018-05-14T00:02:06.479Z,53.20
2018-05-14T00:03:06.478Z,52.83
2018-05-14T00:04:06.490Z,53.11
2018-05-14T00:05:06.463Z,52.83
2018-05-14T00:06:06.465Z,52.92
2018-05-14T00:07:06.459Z,53.11
2018-05-14T00:08:06.447Z,52.73
2018-05-14T00:09:06.463Z,52.83
2018-05-14T00:10:06.438Z,52.83
2018-05-14T00:11:06.437Z,52.92
2018-05-14T00:12:06.429Z,52.83
2018-05-14T00:13:06.421Z,53.02
2018-05-14T00:14:06.418Z,53.11
2018-05-14T00:15:06.414Z,53.11
2018-05-14T00:16:06.409Z,53.30
2018-05-14T00:17:06.401Z,52.92
2018-05-14T00:18:08.147Z,52.92
2018-05-14T00:19:06.392Z,53.02
2018-05-14T00:20:06.391Z,52.44
2018-05-14T00:21:06.387Z,52.54
2018-05-14T00:22:06.373Z,52.54
2018-05-14T00:23:06.371Z,52.54
2018-05-14T00:24:06.365Z,52.54
2018-05-14T00:25:06.357Z,52.73
2018-05-14T00:26:08.146Z,52.63
2018-05-14T00:27:06.349Z,52.54
2018-05-14T00:28:08.154Z,52.54
2018-05-14T00:29:06.340Z,52.54
2018-05-14T00:30:06.337Z,52.44
2018-05-14T00:31:06.334Z,52.44
2018-05-14T00:32:06.325Z,52.25
2018-05-14T00:33:06.321Z,52.06
2018-05-14T00:34:06.315Z,52.06
2018-05-14T00:35:06.309Z,52.15
2018-05-14T00:36:06.304Z,52.13
2018-05-14T00:37:06.299Z,52.15
2018-05-14T00:38:06.297Z,52.06
2018-05-14T00:39:06.286Z,52.34
2018-05-14T00:40:06.289Z,52.34
2018-05-14T00:41:06.291Z,52.34
2018-05-14T00:42:06.274Z,52.54
2018-05-14T00:43:06.269Z,52.44
2018-05-14T00:44:06.264Z,52.44
2018-05-14T00:45:06.265Z,52.06
2018-05-14T00:46:06.258Z,52.34
2018-05-14T00:47:06.246Z,51.87
2018-05-14T00:48:06.248Z,51.84
2018-05-14T00:49:06.247Z,51.87
2018-05-14T00:50:06.234Z,51.87
2018-05-14T00:51:06.231Z,51.87
2018-05-14T00:52:06.220Z,51.93
2018-05-14T00:53:06.217Z,51.56
2018-05-14T00:54:06.216Z,51.56
2018-05-14T00:55:06.222Z,51.87
2018-05-14T00:56:06.204Z,51.84
2018-05-14T00:57:06.198Z,51.93
2018-05-14T00:58:08.166Z,51.84
2018-05-14T00:59:09.170Z,51.93
2018-05-14T01:00:08.172Z,51.97
2018-05-14T01:01:08.167Z,51.56
2018-05-14T01:02:06.173Z,51.27
2018-05-14T01:03:06.169Z,51.17
2018-05-14T01:04:06.162Z,51.10
2018-05-14T01:05:06.155Z,51.39
2018-05-14T01:06:06.150Z,51.17
2018-05-14T01:07:06.148Z,51.10
2018-05-14T01:08:06.138Z,51.29
2018-05-14T01:09:06.134Z,50.81
2018-05-14T01:10:06.126Z,51.01
2018-05-14T01:11:06.120Z,51.10
2018-05-14T01:12:06.133Z,50.91
2018-05-14T01:13:06.108Z,51.10
2018-05-14T01:14:06.105Z,50.79
2018-05-14T01:15:06.113Z,50.70
2018-05-14T01:16:06.091Z,50.98
2018-05-14T01:17:06.090Z,51.17
2018-05-14T01:18:06.086Z,51.17
2018-05-14T01:19:06.078Z,50.98
2018-05-14T01:20:06.075Z,50.98
2018-05-14T01:21:06.090Z,50.98
2018-05-14T01:22:06.063Z,50.89
2018-05-14T01:23:06.065Z,50.98
2018-05-14T01:24:06.051Z,50.50
2018-05-14T01:25:06.053Z,50.31
2018-05-14T01:26:06.045Z,50.62
2018-05-14T01:27:06.034Z,50.43
2018-05-14T01:28:07.695Z,50.41
2018-05-14T01:29:06.031Z,50.62
2018-05-14T01:30:06.020Z,50.34
2018-05-14T01:31:06.018Z,50.50
2018-05-14T01:32:06.012Z,50.31
2018-05-14T01:33:06.005Z,50.60
2018-05-14T01:34:06.001Z,50.41
2018-05-14T01:35:05.994Z,50.02
2018-05-14T01:36:05.985Z,49.93
2018-05-14T01:37:05.985Z,49.86
2018-05-14T01:38:05.986Z,50.21
2018-05-14T01:39:05.974Z,50.05
2018-05-14T01:40:05.969Z,49.93
2018-05-14T01:41:05.970Z,49.74
2018-05-14T01:42:05.965Z,49.55
2018-05-14T01:43:05.951Z,49.64
2018-05-14T01:44:05.948Z,49.35
2018-05-14T01:45:05.952Z,49.64
2018-05-14T01:46:05.942Z,49.35
2018-05-14T01:47:05.932Z,49.45
2018-05-14T01:48:05.933Z,49.66
2018-05-14T01:49:05.923Z,49.64
2018-05-14T01:50:05.915Z,49.74
2018-05-14T01:51:05.911Z,49.95
2018-05-14T01:52:05.903Z,49.19
2018-05-14T01:53:05.907Z,49.07
2018-05-14T01:54:05.895Z,49.26
2018-05-14T01:55:05.887Z,49.57
2018-05-14T01:56:05.879Z,49.07
2018-05-14T01:57:05.881Z,48.61
2018-05-14T01:58:05.875Z,48.59
2018-05-14T01:59:05.872Z,48.30
2018-05-14T02:00:05.861Z,48.59
2018-05-14T02:01:05.859Z,48.78
2018-05-14T02:02:05.852Z,48.23
2018-05-14T02:03:05.855Z,48.59
2018-05-14T02:04:05.864Z,48.59
2018-05-14T02:05:05.841Z,48.23
2018-05-14T02:06:05.832Z,48.02
2018-05-14T02:07:05.824Z,48.11
2018-05-14T02:08:05.822Z,47.92
2018-05-14T02:09:05.814Z,48.42
2018-05-14T02:10:05.810Z,48.42
2018-05-14T02:11:05.801Z,48.42
2018-05-14T02:12:05.799Z,48.52
2018-05-14T02:13:05.792Z,48.30
2018-05-14T02:14:07.683Z,48.21
2018-05-14T02:15:05.787Z,47.73
2018-05-14T02:16:05.775Z,47.85
2018-05-14T02:17:05.773Z,47.56
2018-05-14T02:18:05.769Z,48.13
2018-05-14T02:19:05.770Z,47.75
2018-05-14T02:20:05.762Z,47.37
2018-05-14T02:21:05.753Z,46.96
2018-05-14T02:22:05.746Z,47.44
2018-05-14T02:23:05.738Z,47.16
2018-05-14T02:24:07.694Z,46.96
2018-05-14T02:25:05.733Z,47.34
2018-05-14T02:26:05.727Z,47.53
2018-05-14T02:27:05.718Z,46.77
2018-05-14T02:28:07.690Z,46.67
2018-05-14T02:29:05.721Z,46.58
2018-05-14T02:30:05.704Z,46.61
2018-05-14T02:31:05.704Z,46.77
2018-05-14T02:32:07.193Z,46.31
2018-05-14T02:33:05.694Z,46.48
2018-05-14T02:34:05.684Z,46.48
2018-05-14T02:35:05.679Z,46.67
2018-05-14T02:36:05.670Z,46.20
2018-05-14T02:37:05.668Z,46.30
2018-05-14T02:38:05.669Z,46.10
2018-05-14T02:39:05.658Z,46.10
2018-05-14T02:40:05.657Z,46.30
2018-05-14T02:41:05.645Z,46.12
2018-05-14T02:42:05.657Z,45.91
2018-05-14T02:43:05.632Z,46.01
2018-05-14T02:44:05.628Z,46.20
2018-05-14T02:45:05.623Z,46.01
2018-05-14T02:46:05.617Z,45.91
2018-05-14T02:47:05.613Z,46.20
2018-05-14T02:48:05.606Z,46.10
2018-05-14T02:49:05.608Z,45.62
2018-05-14T02:50:05.599Z,45.72
2018-05-14T02:51:05.590Z,45.72
2018-05-14T02:52:05.585Z,45.53
2018-05-14T02:53:05.589Z,45.72
2018-05-14T02:54:05.590Z,45.72
2018-05-14T02:55:05.564Z,45.72
2018-05-14T02:56:05.565Z,45.81
2018-05-14T02:57:05.557Z,46.01
2018-05-14T02:58:05.553Z,45.81
2018-05-14T02:59:05.555Z,45.72
2018-05-14T03:00:05.542Z,45.24
2018-05-14T03:01:05.537Z,44.95
2018-05-14T03:02:05.539Z,44.95
2018-05-14T03:03:05.541Z,44.76
2018-05-14T03:04:05.526Z,44.67
2018-05-14T03:05:05.530Z,44.57
2018-05-14T03:06:05.523Z,44.67
2018-05-14T03:07:07.206Z,44.48
2018-05-14T03:08:05.505Z,44.57
2018-05-14T03:09:05.496Z,44.00
2018-05-14T03:10:05.498Z,43.90
2018-05-14T03:11:05.485Z,43.90
2018-05-14T03:12:05.491Z,44.38
2018-05-14T03:13:05.486Z,43.33
2018-05-14T03:14:05.470Z,43.52
2018-05-14T03:15:05.468Z,43.52
2018-05-14T03:16:05.455Z,43.23
2018-05-14T03:17:05.455Z,43.04
2018-05-14T03:18:05.454Z,42.94
2018-05-14T03:19:05.441Z,42.85
2018-05-14T03:20:05.437Z,43.04
2018-05-14T03:21:05.431Z,42.94
2018-05-14T03:22:05.426Z,42.94
2018-05-14T03:23:05.443Z,42.85
2018-05-14T03:24:05.412Z,42.56
2018-05-14T03:25:05.410Z,42.08
2018-05-14T03:26:05.415Z,41.70
2018-05-14T03:27:05.396Z,41.70
2018-05-14T03:28:05.394Z,41.80
2018-05-14T03:29:07.216Z,41.80
2018-05-14T03:30:05.381Z,41.61
2018-05-14T03:31:05.379Z,41.80
2018-05-14T03:32:05.372Z,41.89
2018-05-14T03:33:05.365Z,41.70
2018-05-14T03:34:05.364Z,41.70
2018-05-14T03:35:07.218Z,41.89
2018-05-14T03:36:05.350Z,41.61
2018-05-14T03:37:05.347Z,41.80
2018-05-14T03:38:05.350Z,41.61
2018-05-14T03:39:05.336Z,41.70
2018-05-14T03:40:05.334Z,41.51
2018-05-14T03:41:05.329Z,41.61
2018-05-14T03:42:05.318Z,41.70
2018-05-14T03:43:05.309Z,41.41
2018-05-14T03:44:05.306Z,41.32
2018-05-14T03:45:05.296Z,41.32
2018-05-14T03:46:05.293Z,41.32
2018-05-14T03:47:05.287Z,41.32
2018-05-14T03:48:05.290Z,41.22
2018-05-14T03:49:05.281Z,41.32
2018-05-14T03:50:05.274Z,41.51
2018-05-14T03:51:05.277Z,41.41
2018-05-14T03:52:05.262Z,41.41
2018-05-14T03:53:05.255Z,41.41
2018-05-14T03:54:05.254Z,41.70
2018-05-14T03:55:05.250Z,41.70
2018-05-14T03:56:05.243Z,41.51
2018-05-14T03:57:05.238Z,41.70
2018-05-14T03:58:05.229Z,41.22
2018-05-14T03:59:05.226Z,41.41
2018-05-14T04:00:05.218Z,41.32
2018-05-14T04:01:05.219Z,41.51
2018-05-14T04:02:05.215Z,41.41
2018-05-14T04:03:05.199Z,41.32
2018-05-14T04:04:05.199Z,41.39
2018-05-14T04:05:05.192Z,41.03
2018-05-14T04:06:05.188Z,41.13
2018-05-14T04:07:05.176Z,41.13
2018-05-14T04:08:05.173Z,41.13
2018-05-14T04:09:05.165Z,41.22
2018-05-14T04:10:05.163Z,41.03
2018-05-14T04:11:05.162Z,41.13
2018-05-14T04:12:05.153Z,41.03
2018-05-14T04:13:05.149Z,41.41
2018-05-14T04:14:05.145Z,40.94
2018-05-14T04:15:05.136Z,40.94
2018-05-14T04:16:05.130Z,41.22
2018-05-14T04:17:05.132Z,41.32
2018-05-14T04:18:05.117Z,41.32
2018-05-14T04:19:05.126Z,41.41
2018-05-14T04:20:05.113Z,40.84
2018-05-14T04:21:05.103Z,41.32
2018-05-14T04:22:05.101Z,40.84
2018-05-14T04:23:05.094Z,40.94
2018-05-14T04:24:05.092Z,41.03
2018-05-14T04:25:05.081Z,40.94
2018-05-14T04:26:05.082Z,40.65
2018-05-14T04:27:05.072Z,41.22
2018-05-14T04:28:05.087Z,41.13
2018-05-14T04:29:05.060Z,41.03
2018-05-14T04:30:05.057Z,40.94
2018-05-14T04:31:05.050Z,41.13
2018-05-14T04:32:05.044Z,41.03
2018-05-14T04:33:05.041Z,40.75
2018-05-14T04:34:05.039Z,40.65
2018-05-14T04:35:05.036Z,40.65
2018-05-14T04:36:05.034Z,40.55
2018-05-14T04:37:05.023Z,40.55
2018-05-14T04:38:05.019Z,40.65
2018-05-14T04:39:05.007Z,40.65
2018-05-14T04:40:05.005Z,40.65
2018-05-14T04:41:05.000Z,40.44
2018-05-14T04:42:04.991Z,40.15
2018-05-14T04:43:04.985Z,40.17
2018-05-14T04:44:04.992Z,40.36
2018-05-14T04:45:05.008Z,40.26
2018-05-14T04:46:04.972Z,40.36
2018-05-14T04:47:04.964Z,40.17
2018-05-14T04:48:04.979Z,40.26
2018-05-14T04:49:04.955Z,40.26
2018-05-14T04:50:04.947Z,40.17
2018-05-14T04:51:04.943Z,40.26
2018-05-14T04:52:04.941Z,40.17
2018-05-14T04:53:04.933Z,40.26
2018-05-14T04:54:04.950Z,40.36
2018-05-14T04:55:04.923Z,40.36
2018-05-14T04:56:04.916Z,40.36
2018-05-14T04:57:04.917Z,40.55
2018-05-14T04:58:04.908Z,40.46
2018-05-14T04:59:04.903Z,40.17
2018-05-14T05:00:04.897Z,40.26
2018-05-14T05:01:04.890Z,40.26
2018-05-14T05:02:04.883Z,40.17
2018-05-14T05:03:06.747Z,39.69
2018-05-14T05:04:04.875Z,39.89
2018-05-14T05:05:04.871Z,40.17
2018-05-14T05:06:04.863Z,39.79
2018-05-14T05:07:04.858Z,39.98
2018-05-14T05:08:04.852Z,40.08
2018-05-14T05:09:04.850Z,40.08
2018-05-14T05:10:04.843Z,39.60
2018-05-14T05:11:04.837Z,39.89
2018-05-14T05:12:04.836Z,40.08
2018-05-14T05:13:04.828Z,40.08
2018-05-14T05:14:04.825Z,39.89
2018-05-14T05:16:40.486Z,39.98
2018-05-14T05:17:38.224Z,39.89
2018-05-14T05:19:33.220Z,39.50
2018-05-14T05:20:31.085Z,39.22
2018-05-14T05:22:24.946Z,39.12
2018-05-14T05:23:25.399Z,39.22
2018-05-14T05:25:52.373Z,39.22
2018-05-14T05:26:19.578Z,39.31
2018-05-14T05:30:10.925Z,38.83
2018-05-14T05:30:45.019Z,38.83
2018-05-14T05:34:37.341Z,38.74
2018-05-14T05:35:11.171Z,38.74
2018-05-14T05:37:04.064Z,38.35
2018-05-14T05:38:03.606Z,38.54
2018-05-14T05:40:28.084Z,38.83
2018-05-14T05:40:58.732Z,39.22
2018-05-14T05:43:01.419Z,39.12
2018-05-14T05:43:51.784Z,38.74
2018-05-14T05:47:50.592Z,38.74
2018-05-14T05:48:18.602Z,39.69
2018-05-14T05:50:12.076Z,41.72
2018-05-14T05:52:36.051Z,42.49
2018-05-14T05:53:26.533Z,44.40
2018-05-14T05:55:21.941Z,41.05
2018-05-14T05:56:21.175Z,43.04
2018-05-14T05:58:42.265Z,41.15
2018-05-14T05:59:15.285Z,40.58
2018-05-14T06:01:17.694Z,41.63
2018-05-14T06:02:08.022Z,40.59
2018-05-14T06:03:07.983Z,44.04
2018-05-14T06:04:07.998Z,42.80
2018-05-14T06:05:09.433Z,43.47
2018-05-14T06:06:09.663Z,45.38
2018-05-14T06:07:08.864Z,46.17
2018-05-14T06:08:08.344Z,48.16
2018-05-14T06:09:08.333Z,46.34
2018-05-14T06:10:08.366Z,46.25
2018-05-14T06:11:08.341Z,45.96
2018-05-14T06:12:09.594Z,41.84
2018-05-14T06:13:09.159Z,41.55
2018-05-14T06:14:08.824Z,41.46
2018-05-14T06:15:08.332Z,41.27
2018-05-14T06:16:08.869Z,40.78
2018-05-14T06:17:08.814Z,41.84
2018-05-14T06:18:09.147Z,42.32
2018-05-14T06:19:09.098Z,43.56
2018-05-14T06:20:08.835Z,40.61
2018-05-14T06:21:08.308Z,41.17
2018-05-14T06:22:08.330Z,43.47
2018-05-14T06:23:08.306Z,41.77
2018-05-14T06:24:09.676Z,43.30
2018-05-14T06:25:08.246Z,40.04
2018-05-14T06:26:07.811Z,40.33
2018-05-14T06:27:07.819Z,40.61
2018-05-14T06:28:07.795Z,40.71
2018-05-14T06:29:07.799Z,40.14
2018-05-14T06:30:07.791Z,40.04
2018-05-14T06:31:07.790Z,40.14
2018-05-14T06:32:07.784Z,38.51
2018-05-14T06:33:07.781Z,38.05
2018-05-14T06:34:07.789Z,39.68
2018-05-14T06:35:07.782Z,39.20
2018-05-14T06:36:07.774Z,39.68
2018-05-14T06:37:07.798Z,40.06
2018-05-14T06:38:07.769Z,41.21
2018-05-14T06:39:07.768Z,41.52
2018-05-14T06:40:07.763Z,45.45
2018-05-14T06:41:31.284Z,46.22
2018-05-14T06:43:41.724Z,53.41
2018-05-14T06:44:41.843Z,52.74
2018-05-14T06:46:34.842Z,51.20
2018-05-14T06:47:33.814Z,48.23
2018-05-14T06:49:28.719Z,51.18
2018-05-14T06:50:27.676Z,48.30
2018-05-14T06:52:22.554Z,49.65
2018-05-14T06:53:21.332Z,48.30
2018-05-14T06:54:21.310Z,44.97
2018-05-14T06:55:21.344Z,42.38
2018-05-14T06:56:21.423Z,40.47
2018-05-14T06:57:22.314Z,40.84
2018-05-14T06:58:21.281Z,41.61
2018-05-14T06:59:21.275Z,39.43
2018-05-14T07:00:21.283Z,42.69
2018-05-14T07:01:21.278Z,42.60
2018-05-14T07:02:21.279Z,40.87
2018-05-14T07:03:21.274Z,39.35
2018-05-14T07:04:21.280Z,39.35
2018-05-14T07:10:21.676Z,45.52
2018-05-14T07:11:00.335Z,46.09
2018-05-14T07:13:19.424Z,41.96
2018-05-14T07:13:58.126Z,48.23
2018-05-14T07:14:56.085Z,47.46
2018-05-14T07:15:56.137Z,51.21
2018-05-14T07:16:56.095Z,52.55
2018-05-14T07:17:58.100Z,54.09
2018-05-14T07:18:58.010Z,48.71
2018-05-14T07:19:57.454Z,48.13
2018-05-14T07:20:56.021Z,54.19
2018-05-14T07:21:56.050Z,57.68
2018-05-14T07:22:56.036Z,65.23
2018-05-14T07:23:56.028Z,65.23
2018-05-14T07:24:56.024Z,73.60
2018-05-14T07:25:56.027Z,74.55
2018-05-14T07:26:56.058Z,60.72
2018-05-14T07:27:56.035Z,53.52
2018-05-14T07:28:56.041Z,64.18
2018-05-14T07:29:56.047Z,62.26
2018-05-14T07:30:56.045Z,60.14
2018-05-14T07:31:56.048Z,60.14
2018-05-14T07:32:56.052Z,75.42
2018-05-14T07:33:56.060Z,66.00
2018-05-14T07:34:56.056Z,67.25
2018-05-14T07:35:56.067Z,62.96
2018-05-14T07:36:56.067Z,74.11
2018-05-14T07:37:56.073Z,68.35
2018-05-14T07:38:56.075Z,62.68
2018-05-14T07:39:56.080Z,66.23
2018-05-14T07:40:57.737Z,61.04
2018-05-14T07:41:57.736Z,67.10
2018-05-14T07:42:56.094Z,77.76
2018-05-14T07:43:56.096Z,73.44
2018-05-14T07:44:56.097Z,80.55
2018-05-14T07:45:57.789Z,76.32
2018-05-14T07:46:57.743Z,83.77
2018-05-14T07:47:56.113Z,72.42
2018-05-14T07:48:56.115Z,66.74
2018-05-14T07:49:56.121Z,66.74
2018-05-14T07:50:56.126Z,48.79
2018-05-14T07:51:56.132Z,72.13
2018-05-14T07:52:56.142Z,77.04
2018-05-14T07:53:56.140Z,75.54
2018-05-14T07:54:56.144Z,79.28
2018-05-14T07:55:56.148Z,81.40
2018-05-14T07:56:56.154Z,78.03
2018-05-14T07:57:56.158Z,76.78
2018-05-14T07:58:56.178Z,72.26
2018-05-14T07:59:56.175Z,76.01
2018-05-14T08:00:56.182Z,82.65
2018-05-14T08:01:56.183Z,79.13
2018-05-14T08:02:56.183Z,77.21
2018-05-14T08:03:56.199Z,80.29
2018-05-14T08:04:56.200Z,74.71
2018-05-14T08:05:56.204Z,64.21
2018-05-14T08:06:56.202Z,82.60
2018-05-14T08:07:56.215Z,85.30
2018-05-14T08:08:56.216Z,86.78
2018-05-14T08:09:56.225Z,82.26
2018-05-14T08:10:56.231Z,77.34
2018-05-14T08:11:56.239Z,80.81
2018-05-14T08:12:56.242Z,78.21
2018-05-14T08:13:56.248Z,84.90
2018-05-14T08:14:56.255Z,85.19
2018-05-14T08:15:56.263Z,84.12
2018-05-14T08:16:56.272Z,73.14
2018-05-14T08:17:56.275Z,63.50
2018-05-14T08:18:56.281Z,93.19
2018-05-14T08:19:56.287Z,84.22
2018-05-14T08:20:56.293Z,86.25
2018-05-14T08:21:56.301Z,80.85
2018-05-14T08:22:56.306Z,79.69
2018-05-14T08:23:56.309Z,82.14
2018-05-14T08:24:56.317Z,82.14
2018-05-14T08:25:56.418Z,77.33
2018-05-14T08:26:56.329Z,86.91
2018-05-14T08:27:56.338Z,87.49
2018-05-14T08:28:56.346Z,90.38
2018-05-14T08:29:56.353Z,77.17
2018-05-14T08:30:56.358Z,84.50
2018-05-14T08:31:56.368Z,88.59
2018-05-14T08:32:56.375Z,70.06
2018-05-14T08:33:56.385Z,79.72
2018-05-14T08:34:56.389Z,78.36
2018-05-14T08:35:56.395Z,83.29
2018-05-14T08:36:56.403Z,89.95
2018-05-14T08:37:56.412Z,81.07
2018-05-14T08:38:56.423Z,90.91
2018-05-14T08:39:56.429Z,86.96
2018-05-14T08:40:56.436Z,89.07
2018-05-14T08:41:56.446Z,87.63
2018-05-14T08:42:56.449Z,89.12
2018-05-14T08:43:56.467Z,88.64
2018-05-14T08:44:58.284Z,90.19
2018-05-14T08:45:56.474Z,87.67
2018-05-14T08:46:56.481Z,80.95
2018-05-14T08:47:56.585Z,85.26
2018-05-14T08:48:56.595Z,84.48
2018-05-14T08:49:56.504Z,86.52
2018-05-14T08:50:56.509Z,86.61
2018-05-14T08:51:56.517Z,85.84
2018-05-14T08:52:56.528Z,87.67
2018-05-14T08:53:56.534Z,87.19
2018-05-14T08:54:56.542Z,84.05
2018-05-14T08:55:56.549Z,89.07
2018-05-14T08:56:56.560Z,73.32
2018-05-14T08:57:56.569Z,86.65
2018-05-14T08:58:56.578Z,88.49
2018-05-14T08:59:56.588Z,90.47
2018-05-14T09:00:58.297Z,84.95
2018-05-14T09:01:56.597Z,85.15
2018-05-14T09:02:56.608Z,78.77
2018-05-14T09:03:56.615Z,78.87
2018-05-14T09:04:56.625Z,78.19
2018-05-14T09:05:56.636Z,80.03
2018-05-14T09:06:56.638Z,79.35
2018-05-14T09:07:56.646Z,81.63
2018-05-14T09:08:58.298Z,85.53
2018-05-14T09:09:56.664Z,82.64
2018-05-14T09:10:56.670Z,82.35
2018-05-14T09:11:56.678Z,86.11
2018-05-14T09:12:56.694Z,80.32
2018-05-14T09:13:56.699Z,81.57
2018-05-14T09:14:56.707Z,83.36
2018-05-14T09:15:56.715Z,82.87
2018-05-14T09:16:56.726Z,81.13
2018-05-14T09:17:56.730Z,84.61
2018-05-14T09:18:56.738Z,77.30
2018-05-14T09:19:56.757Z,74.88
2018-05-14T09:20:56.759Z,74.98
2018-05-14T09:21:58.312Z,79.04
2018-05-14T09:22:56.773Z,84.79
2018-05-14T09:23:56.788Z,76.28
2018-05-14T09:24:56.796Z,74.15
2018-05-14T09:25:56.801Z,76.33
2018-05-14T09:26:56.802Z,79.47
2018-05-14T09:27:56.819Z,81.98
2018-05-14T09:28:56.818Z,75.02
2018-05-14T09:29:56.830Z,70.08
2018-05-14T09:30:56.839Z,72.60
2018-05-14T09:31:56.847Z,71.62
2018-05-14T09:32:56.859Z,72.73
2018-05-14T09:33:58.822Z,72.79
2018-05-14T09:34:58.821Z,72.40
2018-05-14T09:35:56.880Z,73.47
2018-05-14T09:36:56.895Z,74.24
2018-05-14T09:37:56.902Z,73.21
2018-05-14T09:38:56.914Z,79.32
2018-05-14T09:39:56.914Z,78.64
2018-05-14T09:40:56.929Z,77.67
2018-05-14T09:41:56.937Z,86.00
2018-05-14T09:42:56.947Z,80.71
2018-05-14T09:43:56.950Z,71.18
2018-05-14T09:44:56.966Z,73.31
2018-05-14T09:45:58.831Z,74.76
2018-05-14T09:46:58.829Z,74.86
2018-05-14T09:47:56.996Z,77.32
2018-05-14T09:48:57.005Z,76.93
2018-05-14T09:49:57.011Z,82.07
2018-05-14T09:50:57.018Z,79.88
2018-05-14T09:51:57.040Z,78.27
2018-05-14T09:52:57.111Z,74.19
2018-05-14T09:53:57.045Z,80.21
2018-05-14T09:54:57.054Z,78.85
2018-05-14T09:55:57.067Z,74.87
2018-05-14T09:56:57.074Z,84.61
2018-05-14T09:57:57.087Z,71.70
2018-05-14T09:58:57.093Z,83.15
2018-05-14T09:59:57.102Z,73.42
2018-05-14T10:00:57.116Z,82.63
2018-05-14T10:01:57.129Z,72.74
2018-05-14T10:02:57.141Z,68.28
2018-05-14T10:03:57.139Z,67.99
2018-05-14T10:04:57.155Z,64.78
2018-05-14T10:05:57.627Z,65.37
2018-05-14T10:06:57.527Z,61.39
2018-05-14T10:07:58.736Z,68.28
2018-05-14T10:08:57.262Z,64.56
2018-05-14T10:09:57.207Z,65.72
2018-05-14T10:10:57.223Z,70.99
2018-05-14T10:11:57.256Z,69.24
2018-05-14T10:12:57.297Z,64.40
2018-05-14T10:13:57.260Z,64.47
2018-05-14T10:14:57.258Z,70.03
2018-05-14T10:15:57.275Z,62.46
2018-05-14T10:16:57.293Z,63.72
2018-05-14T10:17:57.304Z,68.44
2018-05-14T10:18:57.356Z,61.14
2018-05-14T10:19:57.329Z,66.37
2018-05-14T10:20:57.348Z,71.89
2018-05-14T10:21:57.381Z,76.87
2018-05-14T10:22:57.335Z,70.18
2018-05-14T10:23:57.357Z,65.17
2018-05-14T10:24:57.371Z,68.08
2018-05-14T10:25:57.395Z,68.99
2018-05-14T10:26:57.400Z,72.39
2018-05-14T10:27:57.393Z,63.49
2018-05-14T10:28:57.419Z,63.49
2018-05-14T10:29:57.414Z,65.63
2018-05-14T10:30:57.427Z,62.91
2018-05-14T10:31:57.466Z,65.14
2018-05-14T10:32:57.459Z,64.36
2018-05-14T10:33:57.449Z,68.05
2018-05-14T10:34:57.457Z,65.82
2018-05-14T10:35:57.468Z,63.29
2018-05-14T10:36:57.481Z,68.63
2018-05-14T10:37:57.494Z,66.44
2018-05-14T10:38:57.498Z,65.79
2018-05-14T10:39:57.521Z,65.40
2018-05-14T10:40:57.524Z,62.68
2018-05-14T10:41:57.534Z,63.75
2018-05-14T10:42:57.544Z,62.29
2018-05-14T10:43:57.555Z,59.67
2018-05-14T10:44:57.565Z,62.16
2018-05-14T10:45:57.575Z,58.98
2018-05-14T10:46:57.695Z,60.54
2018-05-14T10:47:57.601Z,61.80
2018-05-14T10:48:57.623Z,61.41
2018-05-14T10:49:57.651Z,61.74
2018-05-14T10:50:57.630Z,58.72
2018-05-14T10:51:57.661Z,54.61
2018-05-14T10:52:57.748Z,53.91
2018-05-14T10:53:57.688Z,57.11
2018-05-14T10:54:57.700Z,60.22
2018-05-14T10:55:57.702Z,57.50
2018-05-14T10:56:57.695Z,57.69
2018-05-14T10:57:57.721Z,55.85
2018-05-14T10:58:57.751Z,54.29
2018-05-14T10:59:57.731Z,52.91
2018-05-14T11:00:57.739Z,54.46
2018-05-14T11:01:57.747Z,55.60
2018-05-14T11:02:57.813Z,54.63
2018-05-14T11:03:57.798Z,58.61
2018-05-14T11:04:57.784Z,56.28
2018-05-14T11:05:57.794Z,57.15
2018-05-14T11:06:57.806Z,56.21
2018-05-14T11:07:57.816Z,57.47
2018-05-14T11:08:57.823Z,60.87
2018-05-14T11:09:57.835Z,56.14
2018-05-14T11:10:57.847Z,52.62
2018-05-14T11:11:57.864Z,56.89
2018-05-14T11:12:57.873Z,53.97
2018-05-14T11:13:57.906Z,54.53
2018-05-14T11:14:57.890Z,54.82
2018-05-14T11:15:57.900Z,59.77
2018-05-14T11:16:57.912Z,56.47
2018-05-14T11:17:57.919Z,57.54
2018-05-14T11:18:57.925Z,56.89
2018-05-14T11:19:57.963Z,57.86
2018-05-14T11:20:57.957Z,56.34
2018-05-14T11:21:57.961Z,58.86
2018-05-14T11:22:57.975Z,54.88
2018-05-14T11:23:57.993Z,52.64
2018-05-14T11:24:58.008Z,52.64
2018-05-14T11:25:58.044Z,51.09
2018-05-14T11:26:58.019Z,50.41
2018-05-14T11:27:58.156Z,50.70
2018-05-14T11:28:58.033Z,50.02
2018-05-14T11:29:58.048Z,48.64
2018-05-14T11:30:58.051Z,49.41
2018-05-14T11:31:58.062Z,50.48
2018-05-14T11:32:58.074Z,49.90
2018-05-14T11:33:58.088Z,49.02
2018-05-14T11:34:58.097Z,49.12
2018-05-14T11:35:58.101Z,47.88
2018-05-14T11:36:58.116Z,49.32
2018-05-14T11:37:58.134Z,60.41
2018-05-14T11:38:58.136Z,48.66
2018-05-14T11:39:58.145Z,47.28
2018-05-14T11:40:58.220Z,48.64
2018-05-14T11:41:58.165Z,47.16
2018-05-14T11:42:58.177Z,48.35
2018-05-14T11:43:58.186Z,47.93
2018-05-14T11:44:58.200Z,51.35
2018-05-14T11:45:58.207Z,47.47
2018-05-14T11:46:58.243Z,47.96
2018-05-14T11:47:58.223Z,47.86
2018-05-14T11:48:58.233Z,47.76
2018-05-14T11:49:58.242Z,49.24
2018-05-14T11:50:58.251Z,47.18
2018-05-14T11:51:58.263Z,47.11
2018-05-14T11:52:58.287Z,46.01
2018-05-14T11:53:58.284Z,45.45
2018-05-14T11:54:58.310Z,46.50
2018-05-14T11:55:58.315Z,46.98
2018-05-14T11:56:58.327Z,45.43
2018-05-14T11:57:58.316Z,46.89
2018-05-14T11:58:58.332Z,46.01
2018-05-14T11:59:58.347Z,45.34
2018-05-14T12:00:58.352Z,46.89
2018-05-14T12:01:58.364Z,47.08
2018-05-14T12:02:58.526Z,45.04
2018-05-14T12:03:58.379Z,45.14
2018-05-14T12:04:58.415Z,45.34
2018-05-14T12:05:58.389Z,47.96
2018-05-14T12:06:58.400Z,46.50
2018-05-14T12:07:58.406Z,45.34
2018-05-14T12:08:58.420Z,45.14
2018-05-14T12:09:58.471Z,45.24
2018-05-14T12:10:58.438Z,45.04
2018-05-14T12:11:58.448Z,46.01
2018-05-14T12:12:58.461Z,45.14
2018-05-14T12:13:58.466Z,45.24
2018-05-14T12:14:58.473Z,45.14
2018-05-14T12:15:58.483Z,45.14
2018-05-14T12:16:58.497Z,45.34
2018-05-14T12:17:58.550Z,46.14
2018-05-14T12:18:58.513Z,45.26
2018-05-14T12:19:58.518Z,43.90
2018-05-14T12:20:58.527Z,44.87
2018-05-14T12:21:58.539Z,43.73
2018-05-14T12:22:58.546Z,41.98
2018-05-14T12:23:58.554Z,42.05
2018-05-14T12:24:58.565Z,42.54
2018-05-14T12:25:58.572Z,42.74
2018-05-14T12:26:58.589Z,42.52
2018-05-14T12:27:58.592Z,44.27
2018-05-14T12:28:58.599Z,43.78
2018-05-14T12:29:58.608Z,42.13
2018-05-14T12:30:58.622Z,42.03
2018-05-14T12:31:58.713Z,45.24
2018-05-14T12:32:58.637Z,45.07
2018-05-14T12:33:58.642Z,43.32
2018-05-14T12:34:58.650Z,41.96
2018-05-14T12:35:58.655Z,42.64
2018-05-14T12:36:58.671Z,42.54
2018-05-14T12:37:58.678Z,42.64
2018-05-14T12:38:58.682Z,41.84
2018-05-14T12:39:58.688Z,40.89
2018-05-14T12:40:58.715Z,41.84
2018-05-14T12:41:58.752Z,40.97
2018-05-14T12:42:58.718Z,42.15
2018-05-14T12:43:58.755Z,40.87
2018-05-14T12:44:58.744Z,41.26
2018-05-14T12:45:58.751Z,43.20
2018-05-14T12:46:58.757Z,40.89
2018-05-14T12:47:58.772Z,41.28
2018-05-14T12:48:58.782Z,40.67
2018-05-14T12:49:58.777Z,39.80
2018-05-14T12:50:58.783Z,40.19
2018-05-14T12:51:58.900Z,40.09
2018-05-14T12:52:58.831Z,41.06
2018-05-14T12:53:58.821Z,41.18
2018-05-14T12:54:58.814Z,41.86
2018-05-14T12:55:58.846Z,41.08
2018-05-14T12:56:58.850Z,40.79
2018-05-14T12:57:58.841Z,41.47
2018-05-14T12:58:58.850Z,40.79
2018-05-14T12:59:58.856Z,40.69
2018-05-14T13:00:58.874Z,39.92
2018-05-14T13:01:58.872Z,40.67
2018-05-14T13:02:58.932Z,39.82
2018-05-14T13:03:58.890Z,40.31
2018-05-14T13:04:58.896Z,40.21
2018-05-14T13:05:58.904Z,43.12
2018-05-14T13:06:58.915Z,39.82
2018-05-14T13:07:58.920Z,39.06
2018-05-14T13:08:58.927Z,39.75
2018-05-14T13:09:58.934Z,38.87
2018-05-14T13:10:58.941Z,39.16
2018-05-14T13:11:58.949Z,39.16
2018-05-14T13:12:58.964Z,39.26
2018-05-14T13:13:58.965Z,38.39
2018-05-14T13:14:58.974Z,38.95
2018-05-14T13:15:58.978Z,39.55
2018-05-14T13:16:58.985Z,39.36
2018-05-14T13:17:58.996Z,37.39
2018-05-14T13:18:59.005Z,37.39
2018-05-14T13:19:59.013Z,38.37
2018-05-14T13:20:59.021Z,39.43